Palma Ceia, Florida
Current Conditions -  °F | °C
As of 3:53 AM on Monday 20 Oct 2014 (Local Time) from KTPA Reporting Station
Clear Clear  
Wind Chill: 68°   Ceiling: Unl
Heat Index: 68°   Visibility: 10mi
Dew Point: 63°   Wind: 5mph
Humidity: 84%   Direction: 80°E
Pressure: 30.01"   Gusts: NA
Location:  27.9448°N, 82.5145°W
Report Text: KTPA 200753Z 08004KT 10SM CLR 20/17 A3001 RMK AO2 SLP163 T02000172
Loading
Personal Weather Stations






























Interactive Weather Map
Tropical Storm Tracking
New forecast layout! Learn more

10-Day Weather Forecast

Advertisements
Track Severe Weather on mobile